Time;durP1;ratioP1;P1;durP2;ratioP2;P2;SDS_P1;SDS_P2;PMS_P1;PMS_P2;Temp;Humidity;BMP_temperature;BMP_pressure;BME280_temperature;BME280_humidity;BME280_pressure;Samples;Min_cycle;Max_cycle;Signal;HPM_P1;HPM_P2
2021/04/26 06:31:26;;;;;;;5.80;2.10;;;;;;;21.12;39.33;102460.28;6386442;22;20036;-85
2021/04/26 06:33:51;;;;;;;4.60;2.20;;;;;;;21.22;39.00;102462.91;6343131;22;20069;-84
2021/04/26 06:36:17;;;;;;;5.32;2.08;;;;;;;21.28;39.12;102470.78;6339415;22;20053;-84
2021/04/26 06:38:42;;;;;;;7.18;2.30;;;;;;;21.33;38.90;102472.50;6312930;22;20007;-82
2021/04/26 06:41:10;;;;;;;6.85;1.75;;;;;;;21.27;38.72;102475.09;6339377;22;20007;-82
2021/04/26 06:43:35;;;;;;;6.75;1.88;;;;;;;21.42;37.85;102473.41;6338940;22;20341;-84
2021/04/26 06:46:02;;;;;;;7.53;2.30;;;;;;;21.55;38.15;102478.66;6339153;22;20003;-84
2021/04/26 06:48:28;;;;;;;6.38;2.53;;;;;;;21.56;38.33;102485.66;6339310;22;20374;-83
2021/04/26 06:50:57;;;;;;;5.72;2.22;;;;;;;21.59;38.30;102482.16;6314208;22;20036;-84
2021/04/26 06:53:22;;;;;;;4.70;1.70;;;;;;;21.63;38.35;102485.66;6344153;22;20003;-82
2021/04/26 06:55:48;;;;;;;6.40;2.03;;;;;;;21.75;37.68;102477.75;6340799;22;20030;-84
2021/04/26 07:04:57;;;;;;;6.70;1.92;;;;;;;21.92;36.52;102468.13;6341160;22;20014;-80
2021/04/26 07:07:24;;;;;;;5.63;1.70;;;;;;;21.96;37.27;102475.09;6339867;22;20007;-83
2021/04/26 07:16:33;;;;;;;4.97;1.67;;;;;;;21.46;36.60;102475.16;6373308;22;20018;-83
2021/04/26 07:18:59;;;;;;;4.95;1.58;;;;;;;21.65;36.55;102470.81;6373407;22;20359;-85
2021/04/26 07:21:24;;;;;;;7.18;1.67;;;;;;;21.31;37.77;102460.28;6372269;22;20003;-88
2021/04/26 07:23:49;;;;;;;5.70;1.80;;;;;;;21.06;39.16;102465.50;6373771;22;20051;-89
2021/04/26 07:26:15;;;;;;;7.13;1.80;;;;;;;21.00;38.34;102472.47;6373173;22;20425;-78
2021/04/26 07:28:41;;;;;;;3.97;1.38;;;;;;;21.46;36.66;102464.69;6370544;22;20013;-81
2021/04/26 07:31:06;;;;;;;4.15;1.63;;;;;;;21.24;36.76;102462.03;6363730;22;20095;-80
2021/04/26 07:33:32;;;;;;;5.32;1.63;;;;;;;20.54;38.19;102465.31;6313989;22;20003;-80
2021/04/26 07:35:57;;;;;;;4.20;1.60;;;;;;;21.14;36.76;102452.41;6343393;22;20003;-78
2021/04/26 07:38:23;;;;;;;2.70;1.33;;;;;;;21.58;35.83;102456.84;6344442;22;20059;-81
2021/04/26 07:40:48;;;;;;;4.15;1.40;;;;;;;21.14;36.80;102455.03;6340448;22;20110;-85
2021/04/26 07:43:14;;;;;;;3.65;1.35;;;;;;;21.32;36.16;102451.56;6338711;22;20082;-81
2021/04/26 07:45:39;;;;;;;4.80;1.50;;;;;;;20.52;37.15;102453.97;6339490;22;20002;-80
2021/04/26 07:48:05;;;;;;;3.47;1.23;;;;;;;21.26;35.85;102438.47;6338447;22;20017;-83
2021/04/26 07:50:31;;;;;;;4.80;1.65;;;;;;;21.88;34.19;102439.31;6339878;22;20075;-82
2021/04/26 07:52:56;;;;;;;2.80;1.15;;;;;;;22.00;34.46;102438.44;6314769;22;20003;-85
2021/04/26 08:15:58;;;;;;;2.90;1.10;;;;;;;21.00;35.47;102423.59;6143385;23;20468;-78
2021/04/26 08:53:13;;;;;;;4.10;1.33;;;;;;;19.80;37.76;102404.84;6029203;23;20129;-91
2021/04/26 08:55:39;;;;;;;7.90;1.30;;;;;;;19.60;39.67;102406.41;6102718;23;20386;-86
2021/04/26 08:58:05;;;;;;;5.82;1.42;;;;;;;19.38;38.26;102410.59;6218439;22;20018;-87
2021/04/26 09:00:30;;;;;;;4.75;1.27;;;;;;;19.22;39.20;102409.59;6382689;22;20062;-84
2021/04/26 09:03:01;;;;;;;2.10;1.05;;;;;;;19.42;39.16;102402.78;6398055;22;20077;-82
2021/04/26 09:05:29;;;;;;;4.00;1.10;;;;;;;19.48;39.81;102402.84;6378940;22;20010;-81
2021/04/26 09:07:57;;;;;;;4.90;1.33;;;;;;;19.46;39.05;102399.34;6373453;22;19991;-81
2021/04/26 09:10:39;;;;;;;2.85;1.10;;;;;;;19.47;38.43;102401.09;6371419;22;20306;-83
2021/04/26 09:13:23;;;;;;;4.30;1.10;;;;;;;19.48;38.98;102401.97;6372498;22;20002;-82
2021/04/26 09:15:54;;;;;;;4.05;1.02;;;;;;;19.52;39.55;102394.16;6376218;22;20003;-87
2021/04/26 09:18:20;;;;;;;2.60;1.20;;;;;;;19.41;38.25;102400.19;6375470;22;20067;-86
2021/04/26 09:20:45;;;;;;;3.60;1.30;;;;;;;19.41;39.10;102393.22;6373573;22;20010;-81
2021/04/26 09:23:14;;;;;;;3.35;1.20;;;;;;;19.34;38.83;102394.03;6373196;22;20014;-82
2021/04/26 09:25:41;;;;;;;3.25;1.15;;;;;;;19.32;38.98;102382.72;6371608;22;20017;-81
2021/04/26 09:28:08;;;;;;;2.65;1.10;;;;;;;19.29;39.16;102383.56;6377465;22;19998;-80
2021/04/26 09:30:41;;;;;;;2.97;0.98;;;;;;;19.21;38.76;102376.53;6373119;22;20002;-80
2021/04/26 09:33:36;;;;;;;2.50;1.10;;;;;;;19.24;38.52;102379.16;6346846;22;20097;-79
2021/04/26 09:36:16;;;;;;;2.45;1.15;;;;;;;19.17;39.65;102373.03;6374226;22;20337;-80
2021/04/26 09:38:53;;;;;;;2.58;1.13;;;;;;;19.17;39.27;102370.41;6377930;22;20421;-80
2021/04/26 09:41:29;;;;;;;2.58;1.10;;;;;;;19.06;39.21;102372.94;6378196;22;20021;-80
2021/04/26 09:44:15;;;;;;;4.32;1.42;;;;;;;19.03;39.31;102369.41;6375467;22;20003;-80
2021/04/26 09:46:42;;;;;;;3.28;1.15;;;;;;;18.84;38.79;102373.59;6376144;22;20036;-83
2021/04/26 09:49:29;;;;;;;2.97;1.17;;;;;;;18.95;40.30;102368.50;6377719;22;20075;-80
2021/04/26 09:55:30;;;;;;;2.63;1.20;;;;;;;18.75;40.05;102374.34;6375656;22;20345;-78
2021/04/26 09:57:56;;;;;;;2.80;1.20;;;;;;;18.82;39.89;102364.88;6349276;22;20028;-79
2021/04/26 10:00:22;;;;;;;4.20;1.48;;;;;;;18.88;38.58;102355.38;6296547;22;20029;-79
2021/04/26 10:02:49;;;;;;;2.50;1.15;;;;;;;18.89;39.14;102362.34;6321028;22;20014;-79
2021/04/26 10:05:17;;;;;;;3.58;1.10;;;;;;;18.84;39.56;102361.44;6375459;22;20026;-79
2021/04/26 10:07:43;;;;;;;3.33;1.20;;;;;;;18.80;39.59;102354.44;6348862;22;20306;-79
2021/04/26 10:10:10;;;;;;;2.72;1.10;;;;;;;18.77;39.78;102353.47;6348247;22;20010;-80
2021/04/26 10:12:35;;;;;;;1.83;1.00;;;;;;;18.81;39.37;102344.88;6377473;22;20006;-79
2021/04/26 10:15:02;;;;;;;2.83;1.17;;;;;;;18.78;39.82;102352.69;6374372;22;20033;-80
2021/04/26 10:17:29;;;;;;;2.70;1.05;;;;;;;18.60;38.90;102348.13;6377795;22;20002;-78
2021/04/26 10:19:55;;;;;;;3.65;1.13;;;;;;;18.74;40.58;102343.03;6380043;22;20422;-79
2021/04/26 10:22:43;;;;;;;2.55;0.90;;;;;;;18.85;40.26;102337.09;6375280;22;20043;-79
2021/04/26 10:25:10;;;;;;;5.72;1.30;;;;;;;18.93;40.72;102334.56;6377543;22;20003;-79
2021/04/26 10:27:41;;;;;;;4.82;1.23;;;;;;;18.93;40.06;102337.16;6373434;22;20086;-79
2021/04/26 10:30:08;;;;;;;5.00;1.27;;;;;;;18.69;39.59;102325.63;6373334;22;20044;-79
2021/04/26 10:32:56;;;;;;;3.38;1.00;;;;;;;18.71;40.59;102323.91;6376310;22;20009;-79
2021/04/26 10:35:48;;;;;;;3.95;1.50;;;;;;;18.74;41.04;102327.41;6375828;22;20002;-80
2021/04/26 10:38:40;;;;;;;5.43;1.40;;;;;;;18.81;41.08;102329.22;6365233;22;20018;-79
2021/04/26 10:41:08;;;;;;;4.65;1.50;;;;;;;18.82;42.05;102315.34;6375231;22;20011;-79
2021/04/26 10:43:54;;;;;;;3.28;1.30;;;;;;;18.69;40.62;102320.41;6357344;22;20398;-81
2021/04/26 10:46:20;;;;;;;3.28;1.50;;;;;;;18.66;41.00;102311.66;6305898;22;20033;-79
2021/04/26 10:49:06;;;;;;;4.25;1.35;;;;;;;18.66;41.02;102311.66;6306381;22;20007;-79
2021/04/26 10:51:34;;;;;;;6.93;1.55;;;;;;;18.68;41.36;102307.34;6333559;22;20015;-81
2021/04/26 10:54:03;;;;;;;4.28;1.58;;;;;;;18.70;41.63;102303.00;6361010;22;20014;-79
2021/04/26 10:56:41;;;;;;;2.95;1.35;;;;;;;18.76;41.85;102302.19;6359744;22;20046;-81
2021/04/26 10:59:16;;;;;;;2.22;1.23;;;;;;;18.70;41.37;102303.00;6328776;22;20044;-78
2021/04/26 11:01:49;;;;;;;2.40;1.27;;;;;;;18.70;41.48;102297.78;6332538;22;20438;-79
2021/04/26 11:04:15;;;;;;;4.78;1.35;;;;;;;18.81;42.54;102297.91;6328183;22;20003;-78
2021/04/26 11:06:58;;;;;;;2.85;1.30;;;;;;;18.83;42.08;102291.84;6321090;22;20030;-79
2021/04/26 11:09:38;;;;;;;2.55;1.40;;;;;;;18.83;42.60;102298.81;6297232;22;19999;-78
2021/04/26 11:12:31;;;;;;;2.58;1.20;;;;;;;18.82;42.07;102291.88;6295659;22;20422;-81
2021/04/26 11:40:52;;;;;;;4.60;1.70;;;;;;;18.15;48.29;102272.06;6317684;22;20147;31
2021/04/26 11:43:18;;;;;;;4.57;1.90;;;;;;;18.15;47.85;102265.97;6257437;23;20036;-79
2021/04/26 11:45:47;;;;;;;3.70;1.63;;;;;;;18.02;52.78;102267.56;6233603;23;20004;-79
2021/04/26 11:48:20;;;;;;;4.18;1.73;;;;;;;17.94;49.35;102253.59;6261099;23;20004;-79
2021/04/26 11:50:45;;;;;;;7.15;1.98;;;;;;;18.00;46.71;102256.25;6269859;22;20045;-77
2021/04/26 11:53:10;;;;;;;5.43;1.73;;;;;;;17.95;47.45;102253.59;6331632;22;20022;-78
2021/04/26 11:55:36;;;;;;;4.75;1.73;;;;;;;18.01;47.26;102245.00;6331008;22;20022;-77
2021/04/26 11:58:01;;;;;;;4.50;1.88;;;;;;;18.03;48.21;102249.38;6384946;22;20010;-77
2021/04/26 12:00:31;;;;;;;5.38;2.15;;;;;;;18.01;46.24;102245.88;6329279;22;20087;-78
2021/04/26 12:03:11;;;;;;;5.53;2.00;;;;;;;17.98;47.92;102243.22;6356654;22;20381;-77
2021/04/26 12:05:36;;;;;;;3.25;2.10;;;;;;;17.99;44.98;102239.75;6329058;22;20081;-78
2021/04/26 12:08:02;;;;;;;5.43;1.98;;;;;;;18.01;46.90;102237.19;6382684;22;20009;-77
2021/04/26 12:10:31;;;;;;;3.20;1.80;;;;;;;17.97;46.47;102228.47;6325495;22;20007;-77
2021/04/26 12:13:03;;;;;;;4.88;1.85;;;;;;;17.99;45.97;102221.53;6347656;22;20090;-77
2021/04/26 12:18:06;;;;;;;3.97;1.80;;;;;;;17.95;46.23;102209.34;6316106;22;20019;-79
2021/04/26 12:20:34;;;;;;;4.60;2.08;;;;;;;17.94;45.22;102204.09;6264769;22;20066;-80
2021/04/26 12:23:02;;;;;;;5.30;2.63;;;;;;;17.94;44.75;102207.56;6290228;22;19999;-79
2021/04/26 12:25:33;;;;;;;7.57;2.15;;;;;;;17.94;45.45;102198.88;6292219;22;20006;-79
2021/04/26 12:28:01;;;;;;;6.65;2.08;;;;;;;17.93;46.01;102205.84;6310004;22;20030;-78
2021/04/26 12:30:27;;;;;;;8.82;2.05;;;;;;;17.91;46.08;102201.47;6311794;22;20066;-78
2021/04/26 12:32:54;;;;;;;6.10;2.45;;;;;;;17.92;47.80;102188.47;6308719;22;20011;-78
2021/04/26 12:35:30;;;;;;;8.88;2.38;;;;;;;17.78;48.96;102188.28;6332267;22;19999;-78
2021/04/26 12:37:58;;;;;;;7.10;2.05;;;;;;;17.56;47.21;102192.34;6343529;22;20022;-77
2021/04/26 12:40:41;;;;;;;6.88;2.28;;;;;;;17.38;47.80;102182.59;6394337;22;20054;-78
2021/04/26 12:43:09;;;;;;;7.28;2.42;;;;;;;17.24;46.48;102179.81;6368545;22;20018;-78
2021/04/26 12:45:45;;;;;;;5.90;2.10;;;;;;;17.20;46.88;102174.53;6394594;22;20306;-78
2021/04/26 12:48:19;;;;;;;5.18;2.03;;;;;;;17.23;46.87;102178.06;6362355;22;20002;-78
2021/04/26 12:50:49;;;;;;;4.95;2.03;;;;;;;17.15;48.44;102171.88;6366041;22;20016;-77
2021/04/26 12:53:17;;;;;;;4.95;2.00;;;;;;;17.22;44.58;102178.03;6364869;22;20009;-78
2021/04/26 12:55:51;;;;;;;4.82;2.30;;;;;;;17.14;46.40;102179.69;6362810;22;20052;-78
2021/04/26 12:58:25;;;;;;;6.97;2.00;;;;;;;17.20;45.09;102171.94;6364980;22;20006;-78
2021/04/26 13:00:52;;;;;;;4.05;2.10;;;;;;;17.19;44.90;102178.00;6329490;22;20019;-78
2021/04/26 13:03:39;;;;;;;4.60;1.80;;;;;;;17.26;46.03;102169.44;6348366;22;19998;-78
2021/04/26 13:06:10;;;;;;;6.80;2.17;;;;;;;17.24;44.58;102171.13;6321784;22;20011;-78
2021/04/26 13:08:38;;;;;;;5.60;2.03;;;;;;;17.14;45.33;102177.09;6320352;22;20003;-78
2021/04/26 13:11:08;;;;;;;5.90;2.45;;;;;;;17.11;44.80;102171.81;6298518;22;20003;-77
2021/04/26 13:14:21;;;;;;;7.63;2.10;;;;;;;17.25;45.17;102159.88;6299329;22;20073;-77
2021/04/26 13:16:57;;;;;;;6.07;1.70;;;;;;;17.33;43.45;102150.44;6201270;23;20435;-78
2021/04/26 13:37:49;;;;;;;4.22;1.80;;;;;;;17.20;43.88;102139.03;6275290;22;20212;-80
2021/04/26 13:40:16;;;;;;;5.85;1.95;;;;;;;17.19;44.25;102136.38;6360571;22;20014;-80
2021/04/26 13:42:44;;;;;;;5.35;1.92;;;;;;;17.26;44.43;102120.00;6388004;22;20015;-80
2021/04/26 13:45:13;;;;;;;4.00;1.80;;;;;;;17.33;44.80;102105.34;6331883;22;20002;-80
2021/04/26 13:47:38;;;;;;;8.27;2.22;;;;;;;17.42;45.16;102111.53;6359179;22;20055;-80
2021/04/26 13:50:05;;;;;;;7.25;2.03;;;;;;;17.30;46.15;102110.50;6328028;22;20015;-80
2021/04/26 13:52:31;;;;;;;5.13;1.70;;;;;;;17.28;45.80;102110.47;6304188;22;20010;-80
2021/04/26 13:58:40;;;;;;;4.30;1.90;;;;;;;17.29;42.65;102094.03;6362945;22;20040;-79
2021/04/26 14:05:36;;;;;;;3.40;2.08;;;;;;;17.25;44.51;102087.03;6372870;22;20017;-80
2021/04/26 14:10:38;;;;;;;6.43;2.00;;;;;;;17.37;44.07;102075.91;6395446;22;20026;-81
2021/04/26 14:43:26;;;;;;;5.22;2.00;;;;;;;17.54;43.52;102006.66;6258574;22;20167;31
2021/04/26 14:50:33;;;;;;;5.03;1.70;;;;;;;17.46;43.05;102014.44;6357136;22;20061;-77
2021/04/26 14:53:09;;;;;;;5.53;1.80;;;;;;;17.56;44.32;102011.91;6331600;22;20011;-78
2021/04/26 14:59:01;;;;;;;6.13;1.98;;;;;;;17.38;43.80;102005.66;6333156;22;20014;-77
2021/04/26 15:04:51;;;;;;;6.90;2.10;;;;;;;17.48;42.51;102006.59;6336910;22;20022;-78
2021/04/26 15:10:58;;;;;;;6.00;2.00;;;;;;;17.55;43.02;102010.13;6366723;22;20021;-79
2021/04/26 15:16:53;;;;;;;4.78;2.08;;;;;;;17.51;43.12;101998.84;6361962;22;20032;-77
2021/04/26 15:19:25;;;;;;;4.80;1.90;;;;;;;17.43;42.80;102000.50;6362776;22;19990;-78
2021/04/26 15:25:50;;;;;;;3.15;1.77;;;;;;;17.41;42.51;101987.47;6362593;22;20025;-78
2021/04/26 15:28:32;;;;;;;5.07;1.80;;;;;;;17.51;42.10;101979.72;6360229;22;20035;-77
2021/04/26 15:44:04;;;;;;;4.20;1.90;;;;;;;17.69;40.36;101959.94;6357799;22;20033;-78
2021/04/26 15:49:13;;;;;;;6.32;2.38;;;;;;;17.79;41.53;101953.09;6359510;22;20018;-77
2021/04/26 15:51:39;;;;;;;6.55;1.85;;;;;;;17.92;40.32;101948.88;6361961;22;20036;-79
2021/04/26 15:57:31;;;;;;;4.63;2.05;;;;;;;18.03;40.23;101949.81;6364814;22;20049;-80
2021/04/26 16:11:44;;;;;;;5.78;2.20;;;;;;;17.95;42.62;101921.97;6359370;22;20022;-79
2021/04/26 16:18:42;;;;;;;5.22;2.15;;;;;;;17.92;43.19;101906.31;6346591;22;20091;-80
2021/04/26 16:21:35;;;;;;;5.47;2.00;;;;;;;18.04;41.45;101906.41;6274033;22;20019;-80
2021/04/26 16:24:17;;;;;;;4.28;1.92;;;;;;;17.95;42.12;101902.00;6359036;22;20098;-79
2021/04/26 16:30:21;;;;;;;4.47;1.98;;;;;;;18.02;42.21;101893.38;6338472;22;20018;-79
2021/04/26 16:33:04;;;;;;;9.50;2.40;;;;;;;18.08;42.39;101896.00;6332696;22;20082;-80
2021/04/26 16:35:35;;;;;;;16.52;4.88;;;;;;;18.06;43.56;101878.63;6308501;22;20015;-79
2021/04/26 16:42:08;;;;;;;9.13;3.97;;;;;;;18.06;43.93;101876.03;6332042;22;20026;-79
2021/04/26 16:50:37;;;;;;;11.52;4.00;;;;;;;18.11;44.27;101863.88;6332412;22;20052;-79
2021/04/26 16:53:28;;;;;;;8.95;4.10;;;;;;;18.08;44.83;101861.28;6333840;22;20003;-79
2021/04/26 16:59:21;;;;;;;9.48;3.63;;;;;;;18.06;44.85;101861.25;6333306;22;20087;-79
2021/04/26 17:01:49;;;;;;;8.02;3.85;;;;;;;17.99;44.68;101862.09;6299291;22;20007;-79
2021/04/26 17:07:42;;;;;;;7.93;3.25;;;;;;;17.91;44.66;101852.50;6374076;22;20028;-77
2021/04/26 17:13:32;;;;;;;9.27;3.30;;;;;;;17.98;44.74;101852.53;6395246;22;20017;-79
2021/04/26 17:19:23;;;;;;;8.75;3.20;;;;;;;17.78;44.31;101854.13;6382916;22;20090;-78
2021/04/26 17:34:25;;;;;;;6.85;2.97;;;;;;;17.81;44.33;101847.22;6309792;22;20027;-79
2021/04/26 17:53:27;;;;;;;11.40;3.13;;;;;;;17.79;45.03;101848.06;6357804;22;20029;-82
2021/04/26 18:20:22;;;;;;;5.15;2.50;;;;;;;17.57;43.63;101842.75;6396377;22;20048;-80
2021/04/26 18:26:30;;;;;;;7.20;2.38;;;;;;;17.61;43.27;101839.28;6381458;22;20129;-79
2021/04/26 18:35:57;;;;;;;5.32;2.63;;;;;;;17.60;43.09;101852.31;6265856;23;20039;-81
2021/04/26 18:42:04;;;;;;;5.55;2.10;;;;;;;17.54;42.71;101849.66;6388964;22;20073;-80
2021/04/26 18:48:01;;;;;;;6.15;2.20;;;;;;;17.67;43.01;101847.13;6388489;22;20012;-80
2021/04/26 18:50:28;;;;;;;6.70;2.10;;;;;;;17.75;43.15;101847.19;6359966;22;20006;-81
2021/04/26 18:52:59;;;;;;;4.38;2.00;;;;;;;17.75;43.19;101851.53;6387182;22;20001;-81
2021/04/26 18:55:27;;;;;;;3.42;2.08;;;;;;;17.58;43.21;101846.22;6359006;22;20074;-81
2021/04/26 18:57:55;;;;;;;6.45;2.15;;;;;;;17.57;43.07;101844.44;6386888;22;20041;-81
2021/04/26 19:00:23;;;;;;;7.90;2.35;;;;;;;17.57;42.94;101840.16;6384515;22;20034;-80
2021/04/26 19:02:59;;;;;;;3.92;1.80;;;;;;;17.61;42.58;101843.63;6386117;22;19994;-79
2021/04/26 19:05:27;;;;;;;6.88;2.67;;;;;;;17.63;42.81;101841.91;6384937;22;19994;-78
2021/04/26 19:07:53;;;;;;;6.97;2.35;;;;;;;17.58;42.93;101838.41;6383525;22;20059;-80
2021/04/26 19:10:20;;;;;;;4.78;2.15;;;;;;;17.56;42.92;101837.53;6383810;22;20002;-81
2021/04/26 19:12:47;;;;;;;4.40;2.03;;;;;;;17.60;43.07;101839.28;6356782;22;20006;-81
2021/04/26 19:15:14;;;;;;;4.97;1.77;;;;;;;17.59;42.91;101834.94;6384023;22;20006;-81
2021/04/26 19:17:41;;;;;;;6.18;2.25;;;;;;;17.61;42.81;101841.88;6383779;22;20018;-80
2021/04/26 19:20:12;;;;;;;6.90;2.20;;;;;;;17.57;42.65;101837.53;6382178;22;20006;-81
2021/04/26 19:22:43;;;;;;;4.72;2.05;;;;;;;17.54;43.10;101841.84;6383877;22;20383;-81
2021/04/26 19:25:10;;;;;;;4.55;2.10;;;;;;;17.57;42.67;101836.66;6383441;22;20002;-80
2021/04/26 19:27:38;;;;;;;4.85;2.25;;;;;;;17.61;43.52;101838.41;6381487;22;20002;-78
2021/04/26 19:30:07;;;;;;;3.45;2.00;;;;;;;17.66;43.48;101844.53;6357078;22;20084;-80
2021/04/26 19:32:34;;;;;;;6.22;1.98;;;;;;;17.65;43.65;101837.56;6333076;22;20023;-81
2021/04/26 19:35:13;;;;;;;6.78;2.20;;;;;;;17.67;43.21;101841.91;6326433;22;20451;-80
2021/04/26 19:37:40;;;;;;;4.85;2.00;;;;;;;17.67;43.11;101841.91;6359877;22;20018;-80
2021/04/26 19:43:03;;;;;;;3.53;2.20;;;;;;;17.70;43.45;101835.84;6356755;22;20013;-81
2021/04/26 19:45:45;;;;;;;5.13;2.05;;;;;;;17.72;43.01;101836.75;6355647;22;19999;-81
2021/04/26 19:48:22;;;;;;;5.38;1.98;;;;;;;17.69;43.74;101842.81;6357244;22;20026;-81
2021/04/26 19:50:56;;;;;;;5.45;1.70;;;;;;;17.72;42.84;101833.28;6325410;22;20011;-80
2021/04/26 19:53:25;;;;;;;4.40;1.92;;;;;;;17.78;43.53;101836.78;6356290;22;20010;-80
2021/04/26 19:59:12;;;;;;;3.35;1.88;;;;;;;17.72;43.31;101835.88;6330745;22;20044;-81
2021/04/26 20:01:45;;;;;;;3.67;1.83;;;;;;;17.67;43.10;101839.31;6302317;22;19996;-81
2021/04/26 20:04:11;;;;;;;4.40;2.00;;;;;;;17.66;43.31;101835.00;6303912;22;20003;-80
2021/04/26 20:06:43;;;;;;;3.60;1.90;;;;;;;17.65;43.01;101827.16;6301888;22;20032;-80
2021/04/26 20:09:14;;;;;;;4.95;1.70;;;;;;;17.66;43.03;101834.13;6328632;22;19999;-81
2021/04/26 20:12:01;;;;;;;4.30;2.00;;;;;;;17.68;43.09;101829.78;6329181;22;20003;-81
2021/04/26 20:14:26;;;;;;;3.83;1.92;;;;;;;17.63;43.03;101821.06;6301027;22;20140;-78
2021/04/26 20:16:52;;;;;;;2.58;1.48;;;;;;;17.60;43.15;101819.31;6299236;22;20011;-78
2021/04/26 20:19:21;;;;;;;4.28;1.92;;;;;;;17.62;42.95;101820.22;6273724;22;20007;-78
2021/04/26 20:21:47;;;;;;;3.58;1.85;;;;;;;17.59;42.66;101817.56;6324559;22;20052;-78
2021/04/26 20:24:13;;;;;;;3.72;1.70;;;;;;;17.58;43.12;101815.84;6326542;22;20003;-78
2021/04/26 20:26:45;;;;;;;3.05;1.80;;;;;;;17.54;43.00;101808.88;6307370;22;20080;-78
2021/04/26 20:29:22;;;;;;;4.22;1.90;;;;;;;17.60;43.09;101821.94;6389472;22;20007;-79
2021/04/26 20:31:49;;;;;;;4.30;2.00;;;;;;;17.57;42.79;101824.53;6390913;22;20009;-80
2021/04/26 20:34:16;;;;;;;3.80;2.10;;;;;;;17.61;43.07;101817.59;6363175;22;20002;-80
2021/04/26 20:40:13;;;;;;;5.10;1.80;;;;;;;17.60;43.15;101814.13;6391170;22;20088;-80
2021/04/26 20:42:39;;;;;;;2.45;1.60;;;;;;;17.66;43.52;101827.19;6391669;22;19998;-81
2021/04/26 20:45:10;;;;;;;4.97;2.00;;;;;;;17.58;42.94;101813.25;6393640;22;20021;-81
2021/04/26 20:47:44;;;;;;;3.47;1.80;;;;;;;17.51;42.95;101819.28;6353474;22;20029;-81
2021/04/26 20:50:14;;;;;;;4.28;1.90;;;;;;;17.52;43.47;101818.41;6366729;22;20026;-80
2021/04/26 20:52:41;;;;;;;3.97;1.80;;;;;;;17.51;43.25;101811.47;6337191;22;20007;-80
2021/04/26 20:55:08;;;;;;;5.00;2.38;;;;;;;17.52;43.48;101809.72;6355488;22;19999;-80
2021/04/26 20:57:34;;;;;;;3.67;1.90;;;;;;;17.29;43.02;101813.06;6379049;22;20006;-80
2021/04/26 21:00:01;;;;;;;3.85;1.70;;;;;;;17.08;42.79;101812.91;6382851;22;20008;-80
2021/04/26 21:02:28;;;;;;;3.75;1.80;;;;;;;16.84;42.66;101806.63;6384297;22;20005;-80
2021/04/26 21:04:54;;;;;;;4.20;1.85;;;;;;;16.76;42.59;101808.25;6356347;22;20014;-81
2021/04/26 21:07:21;;;;;;;4.63;1.98;;;;;;;16.70;42.63;101813.38;6384347;22;19998;-81
2021/04/26 21:09:49;;;;;;;6.57;2.03;;;;;;;16.65;42.12;101803.81;6384758;22;20006;-81
2021/04/26 21:12:15;;;;;;;4.63;2.17;;;;;;;16.66;42.42;101809.88;6385526;22;20056;-81
2021/04/26 21:14:41;;;;;;;4.07;1.67;;;;;;;16.71;42.20;101804.72;6382305;22;20077;-81
2021/04/26 21:17:09;;;;;;;3.97;1.98;;;;;;;16.63;42.20;101797.72;6383511;22;20002;-81
2021/04/26 21:19:35;;;;;;;5.93;2.13;;;;;;;16.58;42.00;101790.75;6385638;22;20002;-81
2021/04/26 21:22:01;;;;;;;4.65;2.10;;;;;;;16.61;41.83;101794.25;6387387;22;19998;-80
2021/04/26 21:27:48;;;;;;;7.13;1.88;;;;;;;16.66;41.80;101802.09;6385262;22;20039;-81
2021/04/26 21:30:14;;;;;;;4.57;2.03;;;;;;;16.69;41.69;101789.13;6384668;22;19998;-81
2021/04/26 21:32:40;;;;;;;6.75;2.28;;;;;;;16.73;41.52;101790.88;6385280;22;20065;-80
2021/04/26 21:35:10;;;;;;;4.28;2.20;;;;;;;16.71;41.83;101779.59;6385212;22;19998;-80
2021/04/26 21:37:36;;;;;;;3.78;1.95;;;;;;;16.74;41.71;101784.81;6386562;22;20002;-80
2021/04/26 21:40:06;;;;;;;4.93;1.83;;;;;;;16.72;41.55;101783.06;6385708;22;20002;-80
2021/04/26 21:42:33;;;;;;;4.43;1.80;;;;;;;16.70;41.35;101783.06;6385818;22;19998;-81
2021/04/26 21:45:02;;;;;;;6.30;2.08;;;;;;;16.68;41.27;101782.19;6385857;22;20002;-81
2021/04/26 21:47:27;;;;;;;4.78;2.10;;;;;;;16.70;41.58;101782.19;6384343;22;20089;-80
2021/04/26 21:49:56;;;;;;;4.10;1.70;;;;;;;16.69;41.11;101770.06;6357443;22;20018;-81
2021/04/26 21:52:21;;;;;;;13.68;2.38;;;;;;;16.69;41.49;101765.72;6386320;22;20010;-81
2021/04/26 21:54:47;;;;;;;5.45;2.10;;;;;;;16.68;41.42;101766.59;6388871;22;20002;-81
2021/04/26 21:57:19;;;;;;;5.45;2.08;;;;;;;16.63;41.34;101763.06;6358379;22;20002;-81
2021/04/26 21:59:45;;;;;;;4.35;1.92;;;;;;;16.61;41.70;101765.69;6359000;22;20007;-81
2021/04/26 22:02:11;;;;;;;7.57;2.63;;;;;;;16.67;41.19;101759.63;6361735;22;20112;-81
2021/04/26 22:04:39;;;;;;;4.10;2.10;;;;;;;16.64;41.27;101757.03;6334634;22;20076;-81
2021/04/26 22:07:05;;;;;;;4.40;2.08;;;;;;;16.59;41.29;101751.78;6359767;22;20005;-81
2021/04/26 22:09:32;;;;;;;3.78;2.08;;;;;;;16.60;41.31;101758.72;6361713;22;20002;-81
2021/04/26 22:11:58;;;;;;;6.90;2.15;;;;;;;16.59;41.16;101750.91;6359218;22;19998;-80
2021/04/26 22:14:25;;;;;;;7.15;2.55;;;;;;;16.58;41.42;101751.78;6357306;22;19998;-81
2021/04/26 22:16:50;;;;;;;5.28;2.22;;;;;;;16.57;41.14;101768.19;6355952;22;20513;-81
2021/04/26 22:19:22;;;;;;;4.78;1.88;;;;;;;16.57;40.98;101757.81;6384978;22;19998;-81
2021/04/26 22:21:48;;;;;;;4.57;2.20;;;;;;;16.56;41.18;101753.47;6360662;22;20013;-81
2021/04/26 22:24:15;;;;;;;6.68;2.30;;;;;;;16.57;41.26;101747.41;6359289;22;20002;-81
2021/04/26 22:26:41;;;;;;;4.50;2.20;;;;;;;16.58;41.29;101749.16;6360500;22;20152;-81
2021/04/26 22:29:08;;;;;;;4.80;2.25;;;;;;;16.58;41.02;101743.97;6354820;22;20005;-81
2021/04/26 22:31:35;;;;;;;6.18;2.20;;;;;;;16.56;41.01;101745.69;6353115;22;20010;-81
2021/04/26 22:34:09;;;;;;;6.75;2.15;;;;;;;16.60;41.04;101760.44;6353590;22;20015;-81
2021/04/26 22:36:38;;;;;;;8.07;2.35;;;;;;;16.56;40.87;101749.16;6351783;22;20019;-81
2021/04/26 22:39:09;;;;;;;5.32;2.22;;;;;;;16.60;40.82;101745.72;6352087;22;20007;-81
2021/04/26 22:44:58;;;;;;;5.63;2.70;;;;;;;16.67;40.85;101731.06;6351686;22;20460;-81
2021/04/26 22:47:45;;;;;;;8.00;2.33;;;;;;;16.67;40.82;101738.84;6356302;22;19999;-80
2021/04/26 22:53:42;;;;;;;8.18;2.50;;;;;;;16.56;40.94;101730.97;6305055;22;20018;-80
2021/04/26 23:00:43;;;;;;;6.10;2.45;;;;;;;16.62;40.70;101730.16;6296130;22;20102;-80
2021/04/26 23:06:43;;;;;;;6.30;2.50;;;;;;;16.58;40.87;101729.25;6293438;22;20122;-80
2021/04/26 23:09:39;;;;;;;8.77;3.17;;;;;;;16.56;40.81;101722.31;6303045;22;20038;-80
2021/04/26 23:15:45;;;;;;;9.10;2.78;;;;;;;16.56;40.62;101706.72;6392625;22;20025;-80
2021/04/26 23:18:14;;;;;;;8.35;2.92;;;;;;;16.54;40.71;101698.03;6387205;22;20015;-80
2021/04/26 23:24:21;;;;;;;6.45;3.10;;;;;;;16.60;40.63;101692.88;6399256;22;20005;-80
